Weather observations for the past three days for
Decatur Airport
Imperial (Metric)
Date Time (cdt) Wind (mph) Vis. (mi.) Weather Sky Cond. Temperature (ºF) Relative Humidity Wind Chill (°F) Heat Index (°F) Pressure Precipitation (in)
Air Dwpt 6 hour altimeter (in) sea level (mb) 1 hr 3 hr 6 hr
Max. Min.
05 12:54 NW 10 G 18 10.00 Fair CLR 95 70 96.1 75.9 44% 101 29.94 1013.0
05 11:54 NW 10 10.00 Fair CLR 95 72 47% 103 29.95 1013.4
05 10:54 NW 8 10.00 A Few Clouds FEW120 93 72 50% 101 29.96 1013.8
05 09:54 NW 5 10.00 Fair CLR 91 72 54% 99 29.95 1013.3
05 08:54 W 5 10.00 Fair CLR 87.1 71.1 59% 93 29.95 1013.5
05 07:54 SW 3 10.00 Fair CLR 81 73 77% 86 29.95 1013.4
05 06:54 Calm 10.00 Fair CLR 75.9 71.1 79 75 85% 76 29.94 1013.0
05 05:54 Calm 10.00 Partly Cloudy SCT070 75.9 70 82% 77 29.94 1013.0
05 04:54 Calm 10.00 Fair CLR 75.9 71.1 85% 76 29.93 1012.7
05 03:54 W 3 10.00 Fair CLR 77 73 88% 78 29.92 1012.5
05 02:54 Calm 10.00 Partly Cloudy SCT075 77 73 88% 78 29.93 1012.8
05 01:54 SW 5 10.00 A Few Clouds FEW070 78.1 73 85% 81 29.94 1013.1
05 00:54 Calm 10.00 Fair CLR 78.1 73 91 78.1 85% 81 29.94 1013.1
04 23:54 Calm 10.00 Fair CLR 79 73.9 85% 83 29.95 1013.2
04 22:54 Calm 10.00 Fair CLR 78.1 73.9 87% 81 29.95 1013.5
04 21:54 Calm 10.00 Light Rain CLR 78.1 73.9 87% 81 29.95 1013.3
04 20:54 NE 5 10.00 Fair CLR 81 73.9 79% 86 29.93 1012.9
04 19:54 N 3 10.00 Fair CLR 87.1 72 61% 94 29.92 1012.4
04 18:54 NW 6 10.00 Fair CLR 91.9 71.1 98.1 91.9 51% 99 29.91 1012.2
04 17:54 W 5 10.00 Fair CLR 96.1 66.9 39% 100 29.91 1012.2
04 16:54 SW 8 10.00 Fair CLR 97 66.9 37% 101 29.91 1011.9
04 15:54 SW 9 10.00 Fair CLR 98.1 69.1 39% 104 29.93 1012.8
04 14:54 S 6 10.00 Fair CLR 97 68 39% 102 29.95 1013.3
04 13:54 Vrbl 7 10.00 Fair CLR 96.1 70 43% 103 29.97 1014.1
04 12:54 Vrbl 3 10.00 Fair CLR 95 70 95 75.9 44% 101 29.99 1014.7
04 11:54 SW 9 10.00 Fair CLR 93.9 71.1 48% 101 30 1015.2
04 10:54 W 9 10.00 Fair CLR 91 72 54% 99 30.01 1015.4
04 09:54 W 10 10.00 Fair CLR 88 71.1 57% 94 30 1015.1
04 08:54 W 7 10.00 Fair CLR 84.9 71.1 63% 90 29.99 1014.9
04 07:54 SW 8 10.00 Fair CLR 81 71.1 72% 85 29.98 1014.6
04 06:54 SW 8 10.00 Fair CLR 75.9 70 79 75 82% 77 29.97 1014.2
04 05:54 SW 5 10.00 Fair CLR 75.9 70 82% 77 29.97 1014.1
04 04:54 SW 5 10.00 Fair CLR 77 70 79% 79 29.96 1013.8
04 02:54 S 5 10.00 Fair CLR 77 69.1 77% 79 29.96 1013.5
04 01:54 SW 5 10.00 Fair CLR 79 69.1 72% 82 29.96 1013.8
04 00:54 S 5 10.00 Fair CLR 79 69.1 90 75.9 72% 82 29.97 1014.0
03 23:54 S 3 10.00 Fair CLR 79 70 74% 82 29.97 1014.0
03 22:54 S 3 10.00 Fair CLR 80.1 70 71% 83 29.96 1013.7
03 21:54 S 5 10.00 Fair CLR 80.1 70 71% 83 29.96 1013.7
03 20:54 S 6 10.00 Fair CLR 82.9 71.1 67% 88 29.94 1013.2
03 19:54 S 7 10.00 Fair CLR 84.9 70 61% 89 29.93 1012.8
03 18:54 S 6 10.00 Fair CLR 90 70 97 90 52% 95 29.93 1012.7
03 17:54 SW 8 10.00 Fair CLR 93.9 69.1 44% 99 29.92 1012.6
03 16:54 SW 13 10.00 Fair CLR 96.1 68 40% 101 29.92 1012.4
03 15:54 SW 9 10.00 Fair CLR 97 70 42% 104 29.93 1012.8
03 14:54 SW 10 10.00 Fair CLR 96.1 69.1 41% 102 29.95 1013.4
03 13:54 SW 6 10.00 Fair CLR 96.1 70 43% 103 29.97 1014.0
03 12:54 W 9 10.00 Fair CLR 93.9 70 93.9 75 46% 100 29.99 1014.5
03 11:54 SW 10 10.00 Partly Cloudy SCT100 91 72 54% 99 30 1015.1
03 10:54 SW 9 10.00 Partly Cloudy SCT095 SCT120 89.1 72 57% 96 30 1015.3
03 09:54 SW 13 10.00 Mostly Cloudy FEW085 BKN120 87.1 72 61% 94 30 1015.2
03 08:54 SW 12 10.00 Mostly Cloudy BKN120 82.9 71.1 67% 88 30 1015.2
03 07:54 SW 8 10.00 Fair CLR 79 71.1 77% 82 30 1015.3
03 06:54 S 6 10.00 Fair CLR 75 69.1 80.1 73.9 82% 75 30 1015.1
03 05:54 S 3 10.00 Fair CLR 75.9 69.1 79% 77 29.99 1014.8
03 04:54 SW 6 10.00 Fair CLR 77 69.1 77% 79 29.99 1014.6
03 03:54 S 7 10.00 Fair CLR 77 69.1 77% 79 29.99 1014.6
03 02:54 S 5 10.00 Fair CLR 75.9 69.1 79% 77 29.99 1014.6
03 01:54 SW 6 10.00 Fair CLR 78.1 69.1 74% 80 29.99 1014.7
03 00:54 SW 9 10.00 Fair CLR 80.1 69.1 90 80.1 69% 83 29.99 1014.6
02 23:54 SW 8 10.00 Fair CLR 81 69.1 67% 84 29.98 1014.3
02 22:54 S 7 10.00 Fair CLR 81 69.1 67% 84 29.98 1014.4
02 21:54 SW 7 10.00 Fair CLR 82 69.1 65% 85 29.97 1014.2
02 20:54 S 6 10.00 Fair CLR 84.9 70 61% 89 29.97 1014.1
02 19:54 S 7 10.00 Fair CLR 84.9 71.1 63% 90 29.95 1013.6
02 18:54 SW 6 10.00 Fair CLR 90 72 97 90 56% 97 29.95 1013.6
02 17:54 SW 9 10.00 Fair CLR 95 69.1 43% 101 29.96 1013.7
02 16:54 SW 10 10.00 Fair CLR 96.1 68 40% 101 29.96 1013.7
02 15:54 SW 12 10.00 Fair CLR 97 68 39% 102 29.97 1014.0
02 14:54 S 13 10.00 Fair CLR 97 69.1 40% 103 29.99 1014.6
02 13:54 W 12 G 20 10.00 Fair CLR 97 69.1 40% 103 30 1015.0
Date Time (cdt) Wind (mph) Vis. (mi.) Weather Sky Cond. Air Dwpt Max. Min. Relative Humidity Wind Chill (°F) Heat Index (°F) altimeter (in) sea level (mb) 1 hr 3 hr 6 hr
6 hour
Temperature (ºF) Pressure Precipitation (in)